Time;durP1;ratioP1;P1;durP2;ratioP2;P2;SDS_P1;SDS_P2;PMS_P1;PMS_P2;Temp;Humidity;BMP_temperature;BMP_pressure;BME280_temperature;BME280_humidity;BME280_pressure;Samples;Min_cycle;Max_cycle;Signal;HPM_P1;HPM_P2
2022/01/14 00:02:12;;;;;;;36.17;17.00;;;;;;;;;;5088363;28;20419;-53
2022/01/14 00:04:38;;;;;;;31.50;16.40;;;;;;;;;;5072878;28;20550;-54
2022/01/14 00:07:04;;;;;;;34.07;17.70;;;;;;;;;;5072846;28;20410;-60
2022/01/14 00:09:32;;;;;;;35.23;16.10;;;;;;;;;;5072692;28;20418;-56
2022/01/14 00:11:59;;;;;;;32.47;15.53;;;;;;;;;;5072666;28;20422;-54
2022/01/14 00:14:44;;;;;;;34.73;17.10;;;;;;;;;;5072886;28;20814;-60
2022/01/14 00:17:14;;;;;;;30.87;15.57;;;;;;;;;;5072809;28;20834;-62
2022/01/14 00:19:40;;;;;;;24.93;14.50;;;;;;;;;;5072570;28;20481;-62
2022/01/14 00:22:10;;;;;;;40.23;19.10;;;;;;;;;;5072579;28;20446;-53
2022/01/14 00:33:10;;;;;;;29.10;15.47;;;;;;;;;;5072673;28;20410;-57
2022/01/14 00:35:37;;;;;;;31.53;15.13;;;;;;;;;;5071702;28;20406;-55
2022/01/14 00:38:04;;;;;;;29.67;15.87;;;;;;;;;;5072361;28;20403;-61
2022/01/14 00:40:30;;;;;;;31.03;15.57;;;;;;;;;;5072423;28;20406;-55
2022/01/14 00:42:56;;;;;;;32.53;15.70;;;;;;;;;;5091078;28;20410;-60
2022/01/14 00:45:22;;;;;;;32.40;15.83;;;;;;;;;;5076149;28;20551;-57
2022/01/14 00:47:48;;;;;;;29.73;15.60;;;;;;;;;;5076430;28;20407;-60
2022/01/14 00:50:15;;;;;;;35.20;14.90;;;;;;;;;;5076286;28;20418;-55
2022/01/14 00:52:42;;;;;;;27.73;15.77;;;;;;;;;;5076187;28;20403;-56
2022/01/14 00:55:11;;;;;;;30.77;15.03;;;;;;;;;;5076639;28;20414;-57
2022/01/14 01:00:23;;;;;;;30.20;15.77;;;;;;;;;;5076421;28;20450;-58
2022/01/14 01:02:49;;;;;;;31.73;15.23;;;;;;;;;;5075910;28;20399;-55
2022/01/14 01:05:15;;;;;;;26.70;15.17;;;;;;;;;;5074655;28;20466;-58
2022/01/14 01:07:43;;;;;;;30.67;16.97;;;;;;;;;;5076208;28;20481;-55
2022/01/14 01:10:10;;;;;;;28.90;14.93;;;;;;;;;;5075916;28;20407;-56
2022/01/14 01:12:48;;;;;;;29.50;15.03;;;;;;;;;;5076258;28;20407;-55
2022/01/14 01:15:16;;;;;;;36.27;16.60;;;;;;;;;;5075973;28;20802;-56
2022/01/14 01:17:42;;;;;;;27.27;15.27;;;;;;;;;;5074632;28;20419;-56
2022/01/14 01:20:14;;;;;;;30.90;16.30;;;;;;;;;;5075773;28;20402;-59
2022/01/14 01:22:41;;;;;;;30.83;15.17;;;;;;;;;;5075689;28;20443;-56
2022/01/14 01:25:08;;;;;;;37.10;17.90;;;;;;;;;;5075684;28;20489;-53
2022/01/14 01:27:38;;;;;;;33.23;16.00;;;;;;;;;;5075987;28;20433;-53
2022/01/14 01:32:53;;;;;;;32.40;16.00;;;;;;;;;;5075834;28;20445;-55
2022/01/14 01:35:19;;;;;;;31.23;16.70;;;;;;;;;;5075403;28;20403;-63
2022/01/14 01:37:45;;;;;;;32.60;17.20;;;;;;;;;;5075410;28;20410;-54
2022/01/14 01:40:11;;;;;;;31.67;16.83;;;;;;;;;;5075431;28;20497;-54
2022/01/14 01:42:39;;;;;;;34.50;16.57;;;;;;;;;;5075590;28;20399;-53
2022/01/14 01:45:09;;;;;;;32.23;16.27;;;;;;;;;;5075415;28;20493;-54
2022/01/14 01:47:37;;;;;;;34.07;16.63;;;;;;;;;;5091341;28;20504;-53
2022/01/14 01:50:11;;;;;;;37.63;16.37;;;;;;;;;;5075770;28;20417;-57
2022/01/14 01:52:37;;;;;;;37.63;16.73;;;;;;;;;;5074880;28;20457;-56
2022/01/14 01:55:04;;;;;;;33.07;16.43;;;;;;;;;;5075231;28;20415;-55
2022/01/14 01:57:30;;;;;;;32.97;17.53;;;;;;;;;;5075047;28;20494;-55
2022/01/14 01:59:56;;;;;;;33.37;16.00;;;;;;;;;;5074964;28;20510;-57
2022/01/14 02:02:22;;;;;;;35.23;16.90;;;;;;;;;;5074995;28;20417;-55
2022/01/14 02:04:48;;;;;;;33.87;17.40;;;;;;;;;;5090278;28;20466;-56
2022/01/14 02:07:14;;;;;;;32.90;16.07;;;;;;;;;;5074915;28;20425;-56
2022/01/14 02:09:40;;;;;;;35.97;17.60;;;;;;;;;;5075175;28;20435;-55
2022/01/14 02:12:09;;;;;;;34.23;16.67;;;;;;;;;;5074811;28;20831;-55
2022/01/14 02:23:05;;;;;;;39.23;17.30;;;;;;;;;;5052657;28;20419;-54
2022/01/14 02:25:32;;;;;;;34.70;17.57;;;;;;;;;;5052474;28;20529;-56
2022/01/14 02:27:59;;;;;;;43.80;18.60;;;;;;;;;;5059071;28;20418;-56
2022/01/14 02:30:26;;;;;;;39.07;18.67;;;;;;;;;;5074609;28;20414;-54
2022/01/14 02:32:52;;;;;;;38.63;16.70;;;;;;;;;;5074676;28;20407;-56
2022/01/14 02:35:18;;;;;;;38.20;18.70;;;;;;;;;;5074714;28;20414;-54
2022/01/14 02:37:45;;;;;;;36.23;16.90;;;;;;;;;;5074479;28;20732;-55
2022/01/14 02:40:11;;;;;;;35.10;17.80;;;;;;;;;;5074712;28;20403;-53
2022/01/14 02:42:37;;;;;;;33.53;17.07;;;;;;;;;;5074430;28;20403;-54
2022/01/14 02:45:06;;;;;;;39.97;17.47;;;;;;;;;;5074477;28;20489;-53
2022/01/14 02:47:32;;;;;;;38.53;18.77;;;;;;;;;;5074453;28;20403;-56
2022/01/14 02:50:01;;;;;;;36.27;17.77;;;;;;;;;;5074243;28;20445;-54
2022/01/14 02:52:42;;;;;;;35.47;18.03;;;;;;;;;;5074163;28;20404;-52
2022/01/14 02:55:21;;;;;;;39.90;17.57;;;;;;;;;;5074334;28;20402;-53
2022/01/14 02:57:48;;;;;;;35.20;17.90;;;;;;;;;;5073866;28;20487;-54
2022/01/14 03:00:15;;;;;;;40.03;18.73;;;;;;;;;;5073825;28;20545;-53
2022/01/14 03:02:42;;;;;;;38.83;18.90;;;;;;;;;;5073910;28;20402;-55
2022/01/14 03:05:09;;;;;;;35.20;17.53;;;;;;;;;;5088694;28;20473;-54
2022/01/14 03:07:36;;;;;;;41.23;20.33;;;;;;;;;;5073768;28;20762;-56
2022/01/14 03:10:02;;;;;;;34.60;17.90;;;;;;;;;;5073718;28;20406;-53
2022/01/14 03:12:28;;;;;;;40.10;18.80;;;;;;;;;;5073591;28;20395;-54
2022/01/14 03:14:54;;;;;;;37.70;17.50;;;;;;;;;;5073469;28;20407;-54
2022/01/14 03:17:20;;;;;;;37.90;17.50;;;;;;;;;;5073463;28;20399;-53
2022/01/14 03:19:47;;;;;;;41.07;18.73;;;;;;;;;;5073412;28;20442;-56
2022/01/14 03:22:28;;;;;;;38.20;17.40;;;;;;;;;;5073017;28;21049;-53
2022/01/14 03:27:20;;;;;;;42.83;19.33;;;;;;;;;;5073516;28;20403;-54
2022/01/14 03:29:46;;;;;;;37.87;18.70;;;;;;;;;;5073562;28;20418;-52
2022/01/14 03:32:12;;;;;;;39.27;18.07;;;;;;;;;;5073302;28;20403;-53
2022/01/14 03:34:38;;;;;;;38.33;18.53;;;;;;;;;;5073462;28;20544;-53
2022/01/14 03:37:05;;;;;;;38.27;17.63;;;;;;;;;;5073385;28;20895;-53
2022/01/14 03:39:31;;;;;;;39.23;19.40;;;;;;;;;;5073161;28;20406;-54
2022/01/14 03:41:57;;;;;;;39.70;19.00;;;;;;;;;;5073165;28;20486;-53
2022/01/14 03:44:23;;;;;;;32.60;16.97;;;;;;;;;;5088546;28;20608;-59
2022/01/14 03:46:49;;;;;;;38.50;17.73;;;;;;;;;;5073110;28;20418;-54
2022/01/14 03:49:15;;;;;;;41.10;18.97;;;;;;;;;;5072979;28;20406;-54
2022/01/14 03:51:42;;;;;;;40.63;18.80;;;;;;;;;;5072993;28;20414;-53
2022/01/14 03:54:08;;;;;;;41.53;19.60;;;;;;;;;;5073078;28;20403;-52
2022/01/14 03:56:34;;;;;;;36.63;19.20;;;;;;;;;;5073016;28;20415;-56
2022/01/14 03:59:03;;;;;;;41.50;20.37;;;;;;;;;;5072887;28;20540;-53
2022/01/14 04:01:29;;;;;;;41.90;18.33;;;;;;;;;;5073091;28;20419;-54
2022/01/14 04:03:55;;;;;;;41.10;18.17;;;;;;;;;;5072755;28;20914;-54
2022/01/14 04:06:21;;;;;;;38.67;18.00;;;;;;;;;;5072819;28;20418;-55
2022/01/14 04:08:47;;;;;;;39.73;18.63;;;;;;;;;;5072801;28;20464;-56
2022/01/14 04:11:13;;;;;;;46.93;19.13;;;;;;;;;;5072917;28;20433;-51
2022/01/14 04:13:47;;;;;;;38.17;18.10;;;;;;;;;;5072515;28;20552;-56
2022/01/14 04:16:14;;;;;;;45.77;20.63;;;;;;;;;;5070579;28;20409;-57
2022/01/14 04:18:40;;;;;;;42.10;18.00;;;;;;;;;;5072137;28;20825;-56
2022/01/14 04:21:06;;;;;;;44.10;20.63;;;;;;;;;;5072037;28;21047;-57
2022/01/14 04:23:32;;;;;;;36.70;18.13;;;;;;;;;;5072753;28;20752;-56
2022/01/14 04:25:59;;;;;;;39.53;18.83;;;;;;;;;;5072481;28;21517;-57
2022/01/14 04:28:26;;;;;;;37.90;17.73;;;;;;;;;;5072481;28;20521;-55
2022/01/14 04:30:54;;;;;;;42.70;19.00;;;;;;;;;;5072658;28;20472;-57
2022/01/14 04:33:21;;;;;;;39.50;17.77;;;;;;;;;;5071338;28;20418;-55
2022/01/14 04:35:47;;;;;;;32.93;16.90;;;;;;;;;;5071760;28;20446;-55
2022/01/14 04:38:13;;;;;;;38.47;18.00;;;;;;;;;;5071356;28;20895;-57
2022/01/14 04:40:40;;;;;;;34.87;17.27;;;;;;;;;;5071647;28;20456;-55
2022/01/14 04:43:06;;;;;;;35.77;16.27;;;;;;;;;;5071601;28;20464;-57
2022/01/14 04:48:02;;;;;;;31.90;16.00;;;;;;;;;;5071621;28;20411;-56
2022/01/14 04:50:28;;;;;;;37.00;18.00;;;;;;;;;;5071324;28;20415;-57
2022/01/14 04:52:54;;;;;;;40.93;17.80;;;;;;;;;;5070560;28;20488;-57
2022/01/14 04:55:21;;;;;;;37.83;17.57;;;;;;;;;;5071349;28;20422;-57
2022/01/14 04:57:47;;;;;;;33.70;16.90;;;;;;;;;;5071278;28;20410;-57
2022/01/14 05:00:26;;;;;;;35.10;18.00;;;;;;;;;;5071609;28;20415;-60
2022/01/14 05:02:54;;;;;;;33.73;17.33;;;;;;;;;;5071301;28;20407;-57
2022/01/14 05:05:22;;;;;;;35.40;17.70;;;;;;;;;;5071154;28;20462;-57
2022/01/14 05:07:50;;;;;;;43.63;18.60;;;;;;;;;;5071102;28;20407;-58
2022/01/14 05:12:45;;;;;;;34.30;17.57;;;;;;;;;;5071539;28;20410;-57
2022/01/14 05:15:11;;;;;;;35.83;16.40;;;;;;;;;;5071217;28;20417;-56
2022/01/14 05:17:37;;;;;;;39.93;17.90;;;;;;;;;;5071280;28;20994;-57
2022/01/14 05:20:04;;;;;;;43.50;18.07;;;;;;;;;;5071093;28;20490;-57
2022/01/14 05:22:30;;;;;;;37.73;18.07;;;;;;;;;;5071169;28;20464;-58
2022/01/14 05:24:56;;;;;;;35.00;16.80;;;;;;;;;;5071317;28;20462;-57
2022/01/14 05:27:22;;;;;;;37.30;18.20;;;;;;;;;;5070026;28;20425;-58
2022/01/14 05:29:48;;;;;;;32.10;17.00;;;;;;;;;;5074519;28;20489;-58
2022/01/14 05:32:15;;;;;;;40.10;19.27;;;;;;;;;;5074817;28;20509;-57
2022/01/14 05:34:42;;;;;;;41.70;18.83;;;;;;;;;;5074533;28;20895;-57
2022/01/14 05:37:08;;;;;;;37.57;19.07;;;;;;;;;;5074533;28;20460;-56
2022/01/14 05:39:35;;;;;;;35.60;18.17;;;;;;;;;;5074567;28;20895;-56
2022/01/14 05:42:01;;;;;;;35.00;18.50;;;;;;;;;;5074283;28;20506;-54
2022/01/14 05:44:27;;;;;;;41.33;18.73;;;;;;;;;;5074297;28;20474;-53
2022/01/14 05:46:54;;;;;;;39.83;19.30;;;;;;;;;;5073844;28;20471;-53
2022/01/14 05:49:20;;;;;;;43.03;18.83;;;;;;;;;;5075172;28;20418;-53
2022/01/14 05:51:47;;;;;;;46.33;18.53;;;;;;;;;;5075288;28;20540;-56
2022/01/14 05:54:13;;;;;;;35.77;17.50;;;;;;;;;;5074473;28;20411;-53
2022/01/14 05:56:39;;;;;;;39.93;18.67;;;;;;;;;;5074224;28;20816;-53
2022/01/14 05:59:05;;;;;;;37.17;18.60;;;;;;;;;;5075180;28;20446;-53
2022/01/14 06:01:31;;;;;;;36.00;18.63;;;;;;;;;;5075084;28;20498;-53
2022/01/14 06:03:58;;;;;;;42.70;19.10;;;;;;;;;;5074961;28;20510;-54
2022/01/14 06:06:24;;;;;;;38.60;18.60;;;;;;;;;;5074946;28;20424;-53
2022/01/14 06:08:50;;;;;;;43.37;19.20;;;;;;;;;;5074804;28;20391;-53
2022/01/14 06:11:16;;;;;;;44.13;18.50;;;;;;;;;;5074731;28;20406;-53
2022/01/14 06:13:42;;;;;;;39.00;18.57;;;;;;;;;;5074312;28;20490;-56
2022/01/14 06:16:08;;;;;;;35.80;17.80;;;;;;;;;;5074022;28;20481;-55
2022/01/14 06:18:34;;;;;;;35.43;17.37;;;;;;;;;;5074951;28;20402;-53
2022/01/14 06:21:00;;;;;;;37.67;18.17;;;;;;;;;;5074398;28;20880;-55
2022/01/14 06:23:26;;;;;;;33.00;17.00;;;;;;;;;;5074476;28;20402;-56
2022/01/14 06:25:52;;;;;;;34.30;17.80;;;;;;;;;;5074432;28;20471;-53
2022/01/14 06:28:18;;;;;;;40.93;19.07;;;;;;;;;;5074312;28;20938;-55
2022/01/14 06:30:45;;;;;;;33.03;17.20;;;;;;;;;;5074339;28;20407;-58
2022/01/14 06:33:11;;;;;;;31.80;17.10;;;;;;;;;;5074162;28;20463;-55
2022/01/14 06:35:37;;;;;;;39.20;18.57;;;;;;;;;;5073343;28;20430;-56
2022/01/14 06:38:03;;;;;;;37.93;17.93;;;;;;;;;;5074269;28;20414;-54
2022/01/14 06:40:29;;;;;;;42.30;17.87;;;;;;;;;;5073003;28;20414;-57
2022/01/14 06:42:56;;;;;;;33.60;17.70;;;;;;;;;;5074104;28;20439;-53
2022/01/14 06:45:22;;;;;;;38.23;19.10;;;;;;;;;;5074101;28;20902;-53
2022/01/14 06:47:48;;;;;;;43.80;18.17;;;;;;;;;;5073138;28;20764;-54
2022/01/14 06:50:14;;;;;;;37.47;17.03;;;;;;;;;;5072250;28;20411;-52
2022/01/14 06:52:40;;;;;;;44.37;18.83;;;;;;;;;;5073974;28;20419;-52
2022/01/14 06:55:07;;;;;;;39.20;18.40;;;;;;;;;;5072270;28;20419;-52
2022/01/14 06:57:35;;;;;;;41.10;18.60;;;;;;;;;;5073686;28;20763;-52
2022/01/14 07:00:01;;;;;;;46.33;19.17;;;;;;;;;;5073966;28;20437;-53
2022/01/14 07:02:27;;;;;;;38.60;18.53;;;;;;;;;;5073707;28;20403;-55
2022/01/14 07:04:53;;;;;;;38.63;18.80;;;;;;;;;;5073421;28;20511;-53
2022/01/14 07:07:19;;;;;;;36.67;18.40;;;;;;;;;;5073634;28;20415;-54
2022/01/14 07:09:58;;;;;;;41.57;18.97;;;;;;;;;;5073630;28;20395;-53
2022/01/14 07:12:25;;;;;;;50.73;20.40;;;;;;;;;;5073530;28;20410;-55
2022/01/14 07:14:51;;;;;;;41.43;18.13;;;;;;;;;;5073569;28;20415;-57
2022/01/14 07:17:17;;;;;;;46.57;19.00;;;;;;;;;;5073665;28;20863;-54
2022/01/14 07:19:43;;;;;;;40.70;19.60;;;;;;;;;;5072199;28;20462;-55
2022/01/14 07:22:09;;;;;;;42.00;19.47;;;;;;;;;;5073215;28;20462;-55
2022/01/14 07:24:36;;;;;;;46.20;19.17;;;;;;;;;;5073430;28;20513;-55
2022/01/14 07:27:02;;;;;;;42.80;14.43;;;;;;;;;;5073280;28;20395;-56
2022/01/14 07:29:28;;;;;;;49.40;19.73;;;;;;;;;;5073405;28;20918;-57
2022/01/14 07:31:54;;;;;;;43.73;20.90;;;;;;;;;;5072222;28;20403;-55
2022/01/14 07:34:20;;;;;;;46.70;19.40;;;;;;;;;;5071006;28;20515;-56
2022/01/14 07:36:46;;;;;;;46.57;20.00;;;;;;;;;;5071122;28;20425;-54
2022/01/14 07:39:12;;;;;;;45.87;21.77;;;;;;;;;;5071728;28;20418;-55
2022/01/14 07:41:38;;;;;;;38.77;19.20;;;;;;;;;;5072259;28;20907;-56
2022/01/14 07:44:04;;;;;;;39.67;19.10;;;;;;;;;;5071528;28;20422;-52
2022/01/14 07:46:30;;;;;;;48.90;20.90;;;;;;;;;;5072362;28;20783;-55
2022/01/14 07:48:58;;;;;;;44.00;20.13;;;;;;;;;;5072476;28;20502;-53
2022/01/14 07:51:24;;;;;;;42.97;21.47;;;;;;;;;;5072397;28;20922;-52
2022/01/14 07:53:50;;;;;;;45.20;20.97;;;;;;;;;;5071229;28;20407;-54
2022/01/14 07:56:16;;;;;;;44.73;19.77;;;;;;;;;;5071336;28;20446;-55
2022/01/14 07:58:42;;;;;;;40.37;19.93;;;;;;;;;;5072374;28;20418;-56
2022/01/14 08:01:09;;;;;;;43.90;20.87;;;;;;;;;;5072655;28;20433;-54
2022/01/14 08:03:35;;;;;;;47.90;21.50;;;;;;;;;;5072889;28;20891;-54
2022/01/14 08:06:01;;;;;;;46.73;20.43;;;;;;;;;;5072385;28;20496;-55
2022/01/14 08:08:28;;;;;;;50.43;21.70;;;;;;;;;;5072404;28;20409;-57
2022/01/14 08:10:55;;;;;;;45.40;19.53;;;;;;;;;;5072503;28;20850;-53
2022/01/14 08:13:21;;;;;;;44.23;21.07;;;;;;;;;;5072338;28;20403;-55
2022/01/14 08:15:47;;;;;;;50.13;21.37;;;;;;;;;;5072643;28;20436;-52
2022/01/14 08:18:13;;;;;;;49.83;22.50;;;;;;;;;;5072419;28;20468;-54
2022/01/14 08:20:39;;;;;;;48.23;22.30;;;;;;;;;;5072414;28;20463;-56
2022/01/14 08:23:05;;;;;;;47.90;21.63;;;;;;;;;;5072449;28;20759;-55
2022/01/14 08:25:31;;;;;;;54.73;22.87;;;;;;;;;;5072095;28;20477;-53
2022/01/14 08:27:57;;;;;;;50.90;19.80;;;;;;;;;;5072343;28;20415;-54
2022/01/14 08:30:23;;;;;;;54.17;23.00;;;;;;;;;;5072325;28;20814;-54
2022/01/14 08:32:50;;;;;;;55.37;23.60;;;;;;;;;;5072161;28;20460;-52
2022/01/14 08:35:16;;;;;;;52.47;22.13;;;;;;;;;;5072134;28;20414;-56
2022/01/14 08:37:42;;;;;;;47.70;19.80;;;;;;;;;;5072166;28;20407;-54
2022/01/14 08:40:09;;;;;;;52.60;21.13;;;;;;;;;;5072410;28;20415;-55
2022/01/14 08:42:35;;;;;;;58.43;23.20;;;;;;;;;;5072307;28;20403;-54
2022/01/14 08:45:01;;;;;;;55.00;22.63;;;;;;;;;;5071433;28;20458;-56
2022/01/14 08:47:27;;;;;;;50.90;23.00;;;;;;;;;;5072479;28;20915;-56
2022/01/14 08:49:53;;;;;;;54.13;21.83;;;;;;;;;;5070019;28;20411;-56
2022/01/14 08:52:20;;;;;;;56.43;22.30;;;;;;;;;;5070488;28;20584;-56
2022/01/14 08:54:46;;;;;;;46.60;20.13;;;;;;;;;;5071775;28;20976;-56
2022/01/14 08:57:13;;;;;;;46.13;21.83;;;;;;;;;;5069695;28;20777;-58
2022/01/14 08:59:39;;;;;;;57.53;24.70;;;;;;;;;;5068665;28;20926;-58
2022/01/14 09:02:05;;;;;;;60.87;25.37;;;;;;;;;;5068697;28;20429;-55
2022/01/14 09:04:31;;;;;;;54.47;23.40;;;;;;;;;;5072026;28;20824;-56
2022/01/14 09:06:57;;;;;;;47.00;22.73;;;;;;;;;;5072833;28;20402;-57
2022/01/14 09:09:23;;;;;;;50.07;22.30;;;;;;;;;;5072602;28;20833;-56
2022/01/14 09:11:49;;;;;;;37.07;17.40;;;;;;;;;;5072726;28;20411;-57
2022/01/14 09:14:16;;;;;;;33.37;13.90;;;;;;;;;;5072467;28;20484;-56
2022/01/14 09:16:42;;;;;;;55.00;19.70;;;;;;;;;;5070532;28;20458;-55
2022/01/14 09:19:08;;;;;;;47.20;17.97;;;;;;;;;;5072666;28;20417;-56
2022/01/14 09:21:34;;;;;;;51.03;19.10;;;;;;;;;;5072482;28;20455;-56
2022/01/14 09:24:03;;;;;;;51.77;21.20;;;;;;;;;;5072100;28;20418;-56
2022/01/14 09:26:34;;;;;;;54.37;22.37;;;;;;;;;;5073870;28;20474;-56
2022/01/14 09:29:01;;;;;;;49.77;21.10;;;;;;;;;;5071390;28;20407;-55
2022/01/14 09:31:27;;;;;;;38.77;16.77;;;;;;;;;;5070985;28;20399;-55
2022/01/14 09:33:53;;;;;;;49.27;21.27;;;;;;;;;;5072157;28;20907;-56
2022/01/14 09:36:19;;;;;;;48.27;22.27;;;;;;;;;;5071772;28;20414;-56
2022/01/14 09:38:45;;;;;;;48.60;22.47;;;;;;;;;;5071009;28;20407;-57
2022/01/14 09:41:13;;;;;;;47.90;20.07;;;;;;;;;;5071966;28;20415;-60
2022/01/14 09:43:39;;;;;;;43.33;19.00;;;;;;;;;;5071969;28;20434;-57
2022/01/14 09:46:06;;;;;;;42.03;17.40;;;;;;;;;;5071607;28;20474;-56
2022/01/14 09:48:33;;;;;;;44.80;20.40;;;;;;;;;;5072130;28;20497;-59
2022/01/14 09:50:59;;;;;;;35.63;16.10;;;;;;;;;;5071987;28;20406;-56
2022/01/14 09:53:26;;;;;;;48.13;20.90;;;;;;;;;;5073706;28;20422;-53
2022/01/14 09:55:53;;;;;;;48.37;22.03;;;;;;;;;;5072010;28;20468;-54
2022/01/14 09:58:21;;;;;;;40.80;19.30;;;;;;;;;;5070223;28;21011;-55
2022/01/14 10:00:47;;;;;;;37.87;17.70;;;;;;;;;;5069719;28;20458;-55
2022/01/14 10:03:23;;;;;;;47.83;20.57;;;;;;;;;;5071209;28;20407;-58
2022/01/14 10:05:52;;;;;;;51.70;21.03;;;;;;;;;;5071337;28;20497;-55
2022/01/14 10:08:23;;;;;;;51.60;22.07;;;;;;;;;;5071481;28;20458;-55
2022/01/14 10:10:50;;;;;;;43.07;21.30;;;;;;;;;;5071749;28;20438;-55
2022/01/14 10:13:20;;;;;;;44.37;21.27;;;;;;;;;;5071052;28;20449;-58
2022/01/14 10:15:48;;;;;;;45.47;22.20;;;;;;;;;;5069936;28;20411;-54
2022/01/14 10:18:14;;;;;;;52.40;23.27;;;;;;;;;;5071314;28;20498;-59
2022/01/14 10:20:41;;;;;;;47.13;21.57;;;;;;;;;;5071074;28;20959;-57
2022/01/14 10:23:07;;;;;;;45.70;20.80;;;;;;;;;;5071900;28;20507;-58
2022/01/14 10:25:33;;;;;;;44.77;21.20;;;;;;;;;;5071000;28;20566;-57
2022/01/14 10:27:59;;;;;;;42.73;21.63;;;;;;;;;;5071210;28;20406;-57
2022/01/14 10:30:28;;;;;;;40.60;15.80;;;;;;;;;;5070981;28;20422;-55
2022/01/14 10:33:01;;;;;;;44.33;20.70;;;;;;;;;;5071534;28;20414;-55
2022/01/14 10:35:31;;;;;;;49.73;18.40;;;;;;;;;;5071439;28;20415;-59
2022/01/14 10:38:00;;;;;;;34.03;17.53;;;;;;;;;;5071237;28;20501;-57
2022/01/14 10:40:28;;;;;;;31.57;13.67;;;;;;;;;;5071013;28;20426;-57
2022/01/14 10:43:00;;;;;;;43.10;20.63;;;;;;;;;;5070982;28;20407;-57
2022/01/14 10:45:28;;;;;;;44.90;19.80;;;;;;;;;;5071028;28;20455;-58
2022/01/14 10:47:54;;;;;;;39.90;17.60;;;;;;;;;;5070806;28;20417;-57
2022/01/14 10:50:26;;;;;;;49.43;22.77;;;;;;;;;;5070651;28;20493;-57
2022/01/14 10:52:52;;;;;;;47.07;20.50;;;;;;;;;;5070870;28;20411;-58
2022/01/14 10:55:33;;;;;;;48.23;21.67;;;;;;;;;;5070314;28;20488;-56
2022/01/14 10:58:01;;;;;;;57.20;25.60;;;;;;;;;;5070448;28;20493;-60
2022/01/14 11:00:27;;;;;;;54.17;26.03;;;;;;;;;;5069243;28;20414;-55
2022/01/14 11:02:53;;;;;;;53.47;27.00;;;;;;;;;;5070217;28;20415;-59
2022/01/14 11:05:24;;;;;;;64.40;28.80;;;;;;;;;;5070300;28;21043;-59
2022/01/14 11:07:51;;;;;;;54.17;26.97;;;;;;;;;;5070423;28;20982;-56
2022/01/14 11:10:18;;;;;;;50.60;23.50;;;;;;;;;;5070453;28;20411;-58
2022/01/14 11:12:45;;;;;;;65.63;29.50;;;;;;;;;;5068692;28;20447;-56
2022/01/14 11:15:11;;;;;;;56.13;27.40;;;;;;;;;;5070181;28;20763;-55
2022/01/14 11:17:38;;;;;;;48.07;22.20;;;;;;;;;;5069792;28;20415;-56
2022/01/14 11:20:07;;;;;;;45.00;21.43;;;;;;;;;;5071394;28;20411;-56
2022/01/14 11:25:18;;;;;;;56.60;23.70;;;;;;;;;;5066867;28;20460;-57
2022/01/14 11:27:49;;;;;;;48.13;24.30;;;;;;;;;;5070757;28;20399;-55
2022/01/14 11:30:15;;;;;;;38.27;20.37;;;;;;;;;;5070731;28;20470;-54
2022/01/14 11:32:58;;;;;;;30.63;15.60;;;;;;;;;;5069615;28;20406;-56
2022/01/14 11:35:25;;;;;;;41.30;21.00;;;;;;;;;;5070543;28;20488;-54
2022/01/14 11:37:52;;;;;;;39.77;18.50;;;;;;;;;;5070271;28;20425;-54
2022/01/14 11:40:18;;;;;;;36.87;18.27;;;;;;;;;;5070039;28;20402;-55
2022/01/14 11:42:44;;;;;;;44.17;18.13;;;;;;;;;;5069972;28;20410;-57
2022/01/14 11:45:15;;;;;;;40.30;19.40;;;;;;;;;;5070714;28;20470;-59
2022/01/14 11:47:46;;;;;;;34.90;19.70;;;;;;;;;;5070436;28;20407;-55
2022/01/14 11:50:24;;;;;;;37.33;18.87;;;;;;;;;;5069782;28;20418;-57
2022/01/14 11:52:50;;;;;;;34.17;17.10;;;;;;;;;;5069965;28;20402;-56
2022/01/14 11:55:22;;;;;;;36.67;18.20;;;;;;;;;;5070354;28;20469;-61
2022/01/14 11:57:51;;;;;;;22.90;13.53;;;;;;;;;;5071660;28;20413;-58
2022/01/14 12:02:56;;;;;;;30.90;16.30;;;;;;;;;;5070308;28;20407;-57
2022/01/14 12:05:25;;;;;;;32.67;15.90;;;;;;;;;;5071284;28;20584;-57
2022/01/14 12:08:21;;;;;;;36.60;17.43;;;;;;;;;;5071475;28;20407;-59
2022/01/14 12:10:48;;;;;;;44.80;19.30;;;;;;;;;;5062650;28;20434;-58
2022/01/14 12:13:28;;;;;;;36.53;17.90;;;;;;;;;;5069939;28;20402;-57
2022/01/14 12:15:58;;;;;;;29.40;15.33;;;;;;;;;;5069980;28;20850;-55
2022/01/14 12:18:42;;;;;;;36.97;17.60;;;;;;;;;;5068319;28;20434;-58
2022/01/14 12:21:08;;;;;;;35.60;19.03;;;;;;;;;;5068641;28;20450;-56
2022/01/14 12:23:34;;;;;;;32.23;18.07;;;;;;;;;;5069599;28;20510;-55
2022/01/14 12:26:14;;;;;;;35.00;17.67;;;;;;;;;;5068004;28;20473;-57
2022/01/14 12:28:40;;;;;;;32.23;17.67;;;;;;;;;;5069688;28;20422;-55
2022/01/14 12:31:06;;;;;;;30.80;16.73;;;;;;;;;;5069858;28;20426;-58
2022/01/14 12:33:39;;;;;;;31.83;16.10;;;;;;;;;;5070333;28;20632;-58
2022/01/14 12:36:09;;;;;;;29.80;16.13;;;;;;;;;;5070312;28;20402;-57
2022/01/14 12:38:35;;;;;;;31.30;17.30;;;;;;;;;;5072461;28;20413;-58
2022/01/14 12:41:01;;;;;;;28.70;13.57;;;;;;;;;;5073503;28;20418;-55
2022/01/14 12:43:27;;;;;;;30.97;15.73;;;;;;;;;;5074157;28;20402;-56
2022/01/14 12:46:13;;;;;;;28.43;15.43;;;;;;;;;;5073622;28;20477;-60
2022/01/14 12:48:45;;;;;;;26.07;14.60;;;;;;;;;;5073439;28;20461;-59
2022/01/14 12:51:16;;;;;;;32.13;17.17;;;;;;;;;;5073120;28;20480;-58
2022/01/14 12:53:47;;;;;;;32.53;15.47;;;;;;;;;;5073839;28;20402;-56
2022/01/14 12:56:15;;;;;;;30.90;16.70;;;;;;;;;;5073416;28;20945;-56
2022/01/14 12:58:58;;;;;;;25.43;10.77;;;;;;;;;;5072876;28;20436;-55
2022/01/14 13:01:28;;;;;;;29.40;16.47;;;;;;;;;;5071689;28;20430;-56
2022/01/14 13:03:55;;;;;;;34.57;16.20;;;;;;;;;;5071295;28;20964;-56
2022/01/14 13:06:21;;;;;;;32.57;15.90;;;;;;;;;;5072877;28;20569;-60
2022/01/14 13:08:53;;;;;;;27.90;13.90;;;;;;;;;;5072431;28;20457;-57
2022/01/14 13:11:19;;;;;;;25.83;15.03;;;;;;;;;;5072599;28;20415;-60
2022/01/14 13:13:45;;;;;;;28.03;15.43;;;;;;;;;;5072785;28;20403;-56
2022/01/14 13:16:14;;;;;;;26.70;14.60;;;;;;;;;;5072424;28;20488;-56
2022/01/14 13:18:44;;;;;;;27.73;15.60;;;;;;;;;;5072328;28;20407;-55
2022/01/14 13:21:10;;;;;;;22.47;13.80;;;;;;;;;;5071882;28;20454;-60
2022/01/14 13:23:36;;;;;;;23.90;12.10;;;;;;;;;;5072048;28;20403;-59
2022/01/14 13:26:02;;;;;;;25.10;14.93;;;;;;;;;;5072272;28;20473;-56
2022/01/14 13:28:28;;;;;;;30.63;15.40;;;;;;;;;;5072391;28;20921;-56
2022/01/14 13:30:54;;;;;;;26.80;16.13;;;;;;;;;;5072440;28;20411;-56
2022/01/14 13:33:22;;;;;;;27.20;15.60;;;;;;;;;;5071563;28;20410;-57
2022/01/14 13:35:49;;;;;;;27.90;15.60;;;;;;;;;;5071617;28;20442;-56
2022/01/14 13:38:17;;;;;;;24.83;14.23;;;;;;;;;;5072828;28;20406;-56
2022/01/14 13:40:47;;;;;;;24.53;13.80;;;;;;;;;;5071730;28;20473;-57
2022/01/14 13:43:20;;;;;;;27.00;14.70;;;;;;;;;;5072442;28;20493;-57
2022/01/14 13:45:48;;;;;;;23.93;13.73;;;;;;;;;;5071643;28;20496;-56
2022/01/14 13:48:22;;;;;;;30.03;15.27;;;;;;;;;;5069594;28;20496;-55
2022/01/14 13:50:53;;;;;;;21.87;11.93;;;;;;;;;;5072794;28;20848;-56
2022/01/14 13:53:22;;;;;;;25.10;13.10;;;;;;;;;;5072536;28;20467;-57
2022/01/14 13:55:50;;;;;;;30.50;14.90;;;;;;;;;;5073568;28;20403;-55
2022/01/14 13:58:22;;;;;;;22.00;13.57;;;;;;;;;;5072121;28;20411;-57
2022/01/14 14:00:48;;;;;;;29.10;16.13;;;;;;;;;;5071632;28;20434;-58
2022/01/14 14:03:21;;;;;;;29.07;14.20;;;;;;;;;;5085632;28;20463;-57
2022/01/14 14:05:52;;;;;;;24.30;14.80;;;;;;;;;;5071493;28;20462;-57
2022/01/14 14:08:34;;;;;;;26.83;13.90;;;;;;;;;;5071547;28;20407;-57
2022/01/14 14:16:49;;;;;;;23.50;11.70;;;;;;;;;;5070815;28;20480;-56
2022/01/14 14:19:15;;;;;;;21.30;12.37;;;;;;;;;;5070882;28;20423;-60
2022/01/14 14:21:44;;;;;;;25.20;15.30;;;;;;;;;;5070158;28;20537;-55
2022/01/14 14:24:12;;;;;;;23.83;12.57;;;;;;;;;;5070470;28;20517;-57
2022/01/14 14:26:42;;;;;;;26.73;14.23;;;;;;;;;;5070548;28;20531;-56
2022/01/14 14:29:23;;;;;;;25.17;15.33;;;;;;;;;;5068642;28;20410;-57
2022/01/14 14:31:49;;;;;;;27.10;15.10;;;;;;;;;;5070230;28;20463;-56
2022/01/14 14:34:15;;;;;;;27.30;15.13;;;;;;;;;;5070467;28;20430;-55
2022/01/14 14:36:41;;;;;;;27.93;13.87;;;;;;;;;;5071086;28;20967;-56
2022/01/14 14:39:08;;;;;;;21.40;12.90;;;;;;;;;;5070208;28;20497;-57
2022/01/14 14:41:34;;;;;;;26.80;14.60;;;;;;;;;;5069036;28;20407;-56
2022/01/14 14:44:00;;;;;;;21.97;12.37;;;;;;;;;;5070013;28;20407;-57
2022/01/14 14:46:27;;;;;;;29.63;16.57;;;;;;;;;;5069953;28;20462;-58
2022/01/14 14:48:53;;;;;;;22.40;12.63;;;;;;;;;;5071377;28;20402;-57
2022/01/14 14:51:19;;;;;;;26.70;14.07;;;;;;;;;;5070728;28;20422;-57
2022/01/14 14:53:45;;;;;;;27.10;15.50;;;;;;;;;;5071008;28;20468;-56
2022/01/14 14:56:11;;;;;;;32.77;16.43;;;;;;;;;;5072873;28;20410;-57
2022/01/14 14:58:38;;;;;;;32.00;16.77;;;;;;;;;;5072191;28;20445;-57
2022/01/14 15:01:07;;;;;;;28.80;15.87;;;;;;;;;;5068869;28;20410;-56